EJA6946 KASE-KSJC
Flight info
| Callsign | EJA6946 |
|---|---|
| Flight time | 1h 45m |
| Altitude | 34000 |
| Route | LINDZ1 LINDZ JNC J80 ILC KNGRY RAZRR.5 KLIDE |
| Aircraft | C700/M-G/C |
Departure
| Time | 2026-05-07 17:37 |
|---|---|
| Airport | Aspen-Pitkin County Airport (Sardy Field) (KASE) |
Arrival
| Time | 2026-05-07 19:22 |
|---|---|
| Airport | Norman Y. Mineta San Jose International Airport (KSJC) |
| Time | Latitude | Longitude | Altitude | Speed | Heading |
|---|---|---|---|---|---|
| 2026-05-07 16:55 | 39.22301 | -106.86719 | 7757 ft | 0 kts | 72° |
| 2026-05-07 17:17 | 39.22300 | -106.86723 | 7757 ft | 2 kts | 72° |
| 2026-05-07 17:18 | 39.22298 | -106.86735 | 7751 ft | 2 kts | 92° |
| 2026-05-07 17:19 | 39.22304 | -106.86754 | 7752 ft | 2 kts | 126° |
| 2026-05-07 17:19 | 39.22314 | -106.86771 | 7749 ft | 2 kts | 130° |
| 2026-05-07 17:19 | 39.22314 | -106.86772 | 7749 ft | 0 kts | 130° |
| 2026-05-07 17:26 | 39.22279 | -106.86747 | 7758 ft | 12 kts | 159° |
| 2026-05-07 17:26 | 39.22200 | -106.86709 | 7764 ft | 9 kts | 162° |
| 2026-05-07 17:26 | 39.22160 | -106.86691 | 7767 ft | 10 kts | 160° |
| 2026-05-07 17:26 | 39.22036 | -106.86631 | 7777 ft | 28 kts | 159° |
| 2026-05-07 17:27 | 39.21860 | -106.86546 | 7786 ft | 25 kts | 160° |
| 2026-05-07 17:27 | 39.21705 | -106.86473 | 7804 ft | 22 kts | 159° |
| 2026-05-07 17:27 | 39.21574 | -106.86411 | 7814 ft | 19 kts | 160° |
| 2026-05-07 17:27 | 39.21463 | -106.86357 | 7820 ft | 16 kts | 159° |
| 2026-05-07 17:28 | 39.21378 | -106.86316 | 7825 ft | 12 kts | 159° |
| 2026-05-07 17:28 | 39.21308 | -106.86282 | 7830 ft | 10 kts | 159° |
| 2026-05-07 17:28 | 39.21253 | -106.86255 | 7835 ft | 7 kts | 160° |
| 2026-05-07 17:28 | 39.21224 | -106.86250 | 7837 ft | 0 kts | 184° |
| 2026-05-07 17:34 | 39.21223 | -106.86250 | 7837 ft | 1 kts | 183° |
| 2026-05-07 17:35 | 39.21191 | -106.86263 | 7841 ft | 10 kts | 214° |
| 2026-05-07 17:35 | 39.21186 | -106.86341 | 7839 ft | 13 kts | 311° |
| 2026-05-07 17:35 | 39.21235 | -106.86369 | 7838 ft | 0 kts | 341° |
| 2026-05-07 17:36 | 39.21465 | -106.86479 | 7823 ft | 79 kts | 339° |
| 2026-05-07 17:36 | 39.22242 | -106.86839 | 7765 ft | 156 kts | 341° |
| 2026-05-07 17:36 | 39.23379 | -106.87361 | 8405 ft | 175 kts | 340° |
| 2026-05-07 17:37 | 39.24558 | -106.87807 | 9489 ft | 192 kts | 345° |
| 2026-05-07 17:37 | 39.25776 | -106.88737 | 10179 ft | 224 kts | 307° |
| 2026-05-07 17:37 | 39.26235 | -106.90754 | 11039 ft | 250 kts | 272° |
| 2026-05-07 17:37 | 39.26248 | -106.93052 | 12166 ft | 264 kts | 274° |
| 2026-05-07 17:38 | 39.26504 | -106.95453 | 13477 ft | 274 kts | 283° |
| 2026-05-07 17:38 | 39.27039 | -106.97835 | 14745 ft | 281 kts | 293° |
| 2026-05-07 17:38 | 39.27979 | -107.00073 | 16046 ft | 286 kts | 304° |
| 2026-05-07 17:38 | 39.29263 | -107.02045 | 17448 ft | 288 kts | 313° |
| 2026-05-07 17:39 | 39.30626 | -107.03932 | 18844 ft | 287 kts | 312° |
| 2026-05-07 17:39 | 39.31953 | -107.05844 | 20122 ft | 284 kts | 311° |
| 2026-05-07 17:39 | 39.33238 | -107.07702 | 21390 ft | 280 kts | 311° |
| 2026-05-07 17:39 | 39.34555 | -107.09588 | 22703 ft | 275 kts | 311° |
| 2026-05-07 17:40 | 39.35757 | -107.11477 | 23949 ft | 270 kts | 304° |
| 2026-05-07 17:40 | 39.36675 | -107.13568 | 24980 ft | 265 kts | 297° |
| 2026-05-07 17:40 | 39.37314 | -107.15785 | 25997 ft | 262 kts | 289° |
| 2026-05-07 17:40 | 39.37668 | -107.18077 | 26990 ft | 260 kts | 281° |
| 2026-05-07 17:41 | 39.37742 | -107.20295 | 27894 ft | 259 kts | 274° |
| 2026-05-07 17:41 | 39.37555 | -107.22503 | 28753 ft | 259 kts | 266° |
| 2026-05-07 17:41 | 39.37133 | -107.24706 | 29598 ft | 257 kts | 263° |
| 2026-05-07 17:41 | 39.36702 | -107.26936 | 30385 ft | 253 kts | 264° |
| 2026-05-07 17:42 | 39.36308 | -107.29037 | 30992 ft | 250 kts | 264° |
| 2026-05-07 17:42 | 39.35898 | -107.31128 | 31594 ft | 248 kts | 264° |
| 2026-05-07 17:42 | 39.35617 | -107.32553 | 31996 ft | 246 kts | 264° |
| 2026-05-07 17:42 | 39.35208 | -107.34657 | 32569 ft | 244 kts | 264° |
| 2026-05-07 17:43 | 39.34665 | -107.37431 | 33266 ft | 243 kts | 265° |
| 2026-05-07 17:43 | 39.34252 | -107.39545 | 33783 ft | 242 kts | 265° |
| 2026-05-07 17:43 | 39.33840 | -107.41655 | 34183 ft | 246 kts | 265° |
| 2026-05-07 17:43 | 39.33414 | -107.43881 | 34191 ft | 265 kts | 264° |
| 2026-05-07 17:44 | 39.32948 | -107.46263 | 34210 ft | 284 kts | 264° |
| 2026-05-07 17:44 | 39.32610 | -107.47980 | 34216 ft | 298 kts | 263° |
| 2026-05-07 17:44 | 39.31902 | -107.51562 | 34225 ft | 323 kts | 263° |
| 2026-05-07 17:44 | 39.31520 | -107.53495 | 34229 ft | 335 kts | 262° |
| 2026-05-07 17:45 | 39.30929 | -107.56493 | 34234 ft | 354 kts | 262° |
| 2026-05-07 17:45 | 39.30306 | -107.59651 | 34231 ft | 372 kts | 262° |
| 2026-05-07 17:45 | 39.29651 | -107.62956 | 34237 ft | 389 kts | 262° |
| 2026-05-07 17:45 | 39.28966 | -107.66406 | 34233 ft | 405 kts | 261° |
| 2026-05-07 17:46 | 39.28265 | -107.69932 | 34232 ft | 420 kts | 261° |
| 2026-05-07 17:46 | 39.27513 | -107.73715 | 34231 ft | 436 kts | 261° |
| 2026-05-07 17:46 | 39.26758 | -107.77503 | 34219 ft | 450 kts | 261° |
| 2026-05-07 17:46 | 39.25952 | -107.81536 | 34214 ft | 463 kts | 261° |
| 2026-05-07 17:47 | 39.24332 | -107.89597 | 34205 ft | 467 kts | 261° |
| 2026-05-07 17:47 | 39.22697 | -107.97745 | 34178 ft | 465 kts | 261° |
| 2026-05-07 17:48 | 39.21069 | -108.05809 | 34176 ft | 466 kts | 261° |
| 2026-05-07 17:48 | 39.19442 | -108.13845 | 34187 ft | 467 kts | 261° |
| 2026-05-07 17:49 | 39.17830 | -108.21767 | 34201 ft | 468 kts | 261° |
| 2026-05-07 17:49 | 39.16171 | -108.29902 | 34211 ft | 469 kts | 261° |
| 2026-05-07 17:50 | 39.14507 | -108.38008 | 34230 ft | 466 kts | 261° |
| 2026-05-07 17:50 | 39.12848 | -108.46092 | 34298 ft | 472 kts | 261° |
| 2026-05-07 17:51 | 39.11152 | -108.54288 | 34232 ft | 472 kts | 261° |
| 2026-05-07 17:51 | 39.09464 | -108.62443 | 34220 ft | 472 kts | 261° |
| 2026-05-07 17:52 | 39.07761 | -108.70624 | 34205 ft | 474 kts | 261° |
| 2026-05-07 17:52 | 39.06053 | -108.78830 | 34172 ft | 475 kts | 261° |
| 2026-05-07 17:53 | 39.04853 | -108.86925 | 34156 ft | 472 kts | 265° |
| 2026-05-07 17:53 | 39.03602 | -108.95217 | 34119 ft | 472 kts | 264° |
| 2026-05-07 17:54 | 39.02394 | -109.03508 | 34130 ft | 472 kts | 264° |
| 2026-05-07 17:54 | 39.01146 | -109.11823 | 34110 ft | 474 kts | 264° |
| 2026-05-07 17:55 | 38.99912 | -109.20121 | 34124 ft | 472 kts | 264° |
| 2026-05-07 17:55 | 38.98666 | -109.28392 | 34109 ft | 471 kts | 264° |
| 2026-05-07 17:56 | 38.97420 | -109.36659 | 34116 ft | 471 kts | 264° |
| 2026-05-07 17:56 | 38.96163 | -109.44935 | 34120 ft | 472 kts | 264° |
| 2026-05-07 17:57 | 38.95114 | -109.51816 | 34142 ft | 473 kts | 264° |
| 2026-05-07 17:57 | 38.93633 | -109.61480 | 34150 ft | 475 kts | 264° |
| 2026-05-07 17:58 | 38.92354 | -109.69783 | 34170 ft | 473 kts | 264° |
| 2026-05-07 17:58 | 38.91073 | -109.78059 | 34167 ft | 471 kts | 264° |
| 2026-05-07 17:59 | 38.89790 | -109.86310 | 34170 ft | 473 kts | 264° |
| 2026-05-07 17:59 | 38.88494 | -109.94609 | 34152 ft | 476 kts | 264° |
| 2026-05-07 18:00 | 38.87184 | -110.02924 | 34143 ft | 474 kts | 264° |
| 2026-05-07 18:00 | 38.85911 | -110.11002 | 34115 ft | 472 kts | 264° |
| 2026-05-07 18:01 | 38.84628 | -110.19092 | 34111 ft | 474 kts | 264° |
| 2026-05-07 18:01 | 38.83303 | -110.27411 | 34091 ft | 478 kts | 263° |
| 2026-05-07 18:02 | 38.81302 | -110.39881 | 34103 ft | 474 kts | 263° |
| 2026-05-07 18:03 | 38.79969 | -110.48140 | 34098 ft | 474 kts | 263° |
| 2026-05-07 18:03 | 38.78628 | -110.56417 | 34097 ft | 475 kts | 263° |
| 2026-05-07 18:04 | 38.77308 | -110.64513 | 34090 ft | 475 kts | 263° |
| 2026-05-07 18:04 | 38.75955 | -110.72789 | 34094 ft | 474 kts | 263° |
| 2026-05-07 18:05 | 38.74595 | -110.81062 | 34100 ft | 476 kts | 263° |
| 2026-05-07 18:05 | 38.73219 | -110.89394 | 34087 ft | 479 kts | 263° |
| 2026-05-07 18:06 | 38.71835 | -110.97725 | 34076 ft | 478 kts | 263° |
| 2026-05-07 18:06 | 38.70483 | -111.05843 | 34068 ft | 476 kts | 262° |
| 2026-05-07 18:07 | 38.69123 | -111.13957 | 34062 ft | 478 kts | 262° |
| 2026-05-07 18:07 | 38.67725 | -111.22276 | 34066 ft | 478 kts | 262° |
| 2026-05-07 18:08 | 38.66344 | -111.30436 | 34061 ft | 478 kts | 262° |
| 2026-05-07 18:08 | 38.64942 | -111.38711 | 34067 ft | 477 kts | 262° |
| 2026-05-07 18:09 | 38.63528 | -111.46998 | 34057 ft | 477 kts | 262° |
| 2026-05-07 18:09 | 38.62152 | -111.55036 | 34061 ft | 480 kts | 262° |
| 2026-05-07 18:10 | 38.60714 | -111.63387 | 34060 ft | 482 kts | 262° |
| 2026-05-07 18:10 | 38.59300 | -111.71565 | 34052 ft | 482 kts | 262° |
| 2026-05-07 18:11 | 38.57880 | -111.79751 | 34058 ft | 479 kts | 262° |
| 2026-05-07 18:11 | 38.56432 | -111.88050 | 34049 ft | 480 kts | 261° |
| 2026-05-07 18:12 | 38.54968 | -111.96416 | 34049 ft | 483 kts | 261° |
| 2026-05-07 18:12 | 38.53528 | -112.04589 | 34050 ft | 482 kts | 261° |
| 2026-05-07 18:13 | 38.52056 | -112.12931 | 34047 ft | 482 kts | 261° |
| 2026-05-07 18:13 | 38.50577 | -112.21261 | 34052 ft | 481 kts | 261° |
| 2026-05-07 18:14 | 38.49093 | -112.29586 | 34046 ft | 482 kts | 261° |
| 2026-05-07 18:14 | 38.47594 | -112.37962 | 34059 ft | 485 kts | 261° |
| 2026-05-07 18:15 | 38.46087 | -112.46337 | 34056 ft | 483 kts | 261° |
| 2026-05-07 18:15 | 38.44585 | -112.54658 | 34056 ft | 481 kts | 261° |
| 2026-05-07 18:16 | 38.43074 | -112.62990 | 34083 ft | 483 kts | 261° |
| 2026-05-07 18:16 | 38.41550 | -112.71352 | 34108 ft | 484 kts | 260° |
| 2026-05-07 18:17 | 38.40051 | -112.79543 | 34139 ft | 485 kts | 260° |
| 2026-05-07 18:17 | 38.38516 | -112.87903 | 34159 ft | 484 kts | 260° |
| 2026-05-07 18:18 | 38.37008 | -112.96069 | 34170 ft | 484 kts | 260° |
| 2026-05-07 18:18 | 38.35816 | -113.04247 | 34168 ft | 478 kts | 269° |
| 2026-05-07 18:19 | 38.35196 | -113.12682 | 34158 ft | 478 kts | 268° |
| 2026-05-07 18:19 | 38.34566 | -113.20962 | 34127 ft | 481 kts | 268° |
| 2026-05-07 18:20 | 38.33928 | -113.29475 | 34093 ft | 482 kts | 268° |
| 2026-05-07 18:20 | 38.33273 | -113.37936 | 34057 ft | 479 kts | 268° |
| 2026-05-07 18:21 | 38.32624 | -113.46403 | 34029 ft | 482 kts | 268° |
| 2026-05-07 18:21 | 38.31972 | -113.54702 | 34032 ft | 483 kts | 268° |
| 2026-05-07 18:22 | 38.31312 | -113.63132 | 34025 ft | 480 kts | 267° |
| 2026-05-07 18:22 | 38.30636 | -113.71589 | 34020 ft | 482 kts | 268° |
| 2026-05-07 18:23 | 38.29956 | -113.80091 | 34024 ft | 483 kts | 267° |
| 2026-05-07 18:23 | 38.29281 | -113.88404 | 34033 ft | 482 kts | 267° |
| 2026-05-07 18:24 | 38.28590 | -113.96878 | 34030 ft | 480 kts | 267° |
| 2026-05-07 18:24 | 38.27894 | -114.05334 | 34035 ft | 482 kts | 267° |
| 2026-05-07 18:25 | 38.27200 | -114.13648 | 34046 ft | 484 kts | 267° |
| 2026-05-07 18:25 | 38.26490 | -114.22134 | 34039 ft | 481 kts | 267° |
| 2026-05-07 18:26 | 38.25775 | -114.30586 | 34044 ft | 482 kts | 267° |
| 2026-05-07 18:26 | 38.25047 | -114.39107 | 34042 ft | 485 kts | 267° |
| 2026-05-07 18:27 | 38.24521 | -114.47619 | 34044 ft | 481 kts | 269° |
| 2026-05-07 18:27 | 38.23971 | -114.56097 | 34037 ft | 481 kts | 268° |
| 2026-05-07 18:28 | 38.23464 | -114.64224 | 34034 ft | 483 kts | 268° |
| 2026-05-07 18:28 | 38.22911 | -114.72746 | 34033 ft | 485 kts | 268° |
| 2026-05-07 18:29 | 38.22361 | -114.81243 | 34030 ft | 486 kts | 268° |
| 2026-05-07 18:29 | 38.21797 | -114.89800 | 34025 ft | 485 kts | 268° |
| 2026-05-07 18:30 | 38.21231 | -114.98314 | 34024 ft | 482 kts | 268° |
| 2026-05-07 18:30 | 38.20663 | -115.06784 | 34021 ft | 481 kts | 268° |
| 2026-05-07 18:31 | 38.20084 | -115.15286 | 34012 ft | 483 kts | 268° |
| 2026-05-07 18:31 | 38.19598 | -115.22377 | 34013 ft | 485 kts | 268° |
| 2026-05-07 18:32 | 38.19011 | -115.30829 | 34020 ft | 483 kts | 268° |
| 2026-05-07 18:32 | 38.18440 | -115.38998 | 34023 ft | 481 kts | 268° |
| 2026-05-07 18:33 | 38.17845 | -115.47413 | 34023 ft | 483 kts | 268° |
| 2026-05-07 18:33 | 38.17236 | -115.55939 | 34035 ft | 484 kts | 268° |
| 2026-05-07 18:34 | 38.16622 | -115.64437 | 34031 ft | 481 kts | 268° |
| 2026-05-07 18:34 | 38.16005 | -115.72906 | 34035 ft | 482 kts | 267° |
| 2026-05-07 18:35 | 38.15379 | -115.81406 | 34034 ft | 483 kts | 267° |
| 2026-05-07 18:35 | 38.14746 | -115.89906 | 34029 ft | 483 kts | 267° |
| 2026-05-07 18:36 | 38.14108 | -115.98405 | 34034 ft | 483 kts | 267° |
| 2026-05-07 18:36 | 38.13463 | -116.06894 | 34034 ft | 482 kts | 267° |
| 2026-05-07 18:37 | 38.12829 | -116.15184 | 34037 ft | 482 kts | 267° |
| 2026-05-07 18:37 | 38.12178 | -116.23595 | 34042 ft | 482 kts | 267° |
| 2026-05-07 18:38 | 38.11518 | -116.32068 | 34044 ft | 482 kts | 267° |
| 2026-05-07 18:38 | 38.10865 | -116.40348 | 34049 ft | 483 kts | 267° |
| 2026-05-07 18:39 | 38.10189 | -116.48856 | 34051 ft | 485 kts | 267° |
| 2026-05-07 18:39 | 38.09505 | -116.57393 | 34058 ft | 486 kts | 266° |
| 2026-05-07 18:40 | 38.08816 | -116.65882 | 34072 ft | 482 kts | 266° |
| 2026-05-07 18:40 | 38.08141 | -116.74171 | 34113 ft | 484 kts | 266° |
| 2026-05-07 18:41 | 38.07446 | -116.82597 | 34154 ft | 486 kts | 266° |
| 2026-05-07 18:41 | 38.06738 | -116.91112 | 34193 ft | 483 kts | 266° |
| 2026-05-07 18:42 | 38.06033 | -116.99516 | 34220 ft | 482 kts | 266° |
| 2026-05-07 18:42 | 38.05316 | -117.07992 | 34222 ft | 484 kts | 266° |
| 2026-05-07 18:43 | 38.04606 | -117.16310 | 34225 ft | 487 kts | 266° |
| 2026-05-07 18:43 | 38.03872 | -117.24837 | 34196 ft | 484 kts | 266° |
| 2026-05-07 18:44 | 38.03139 | -117.33289 | 34157 ft | 482 kts | 266° |
| 2026-05-07 18:44 | 38.02412 | -117.41599 | 34113 ft | 487 kts | 266° |
| 2026-05-07 18:45 | 38.01659 | -117.50124 | 34065 ft | 485 kts | 265° |
| 2026-05-07 18:45 | 38.00116 | -117.58418 | 34039 ft | 488 kts | 250° |
| 2026-05-07 18:46 | 37.97278 | -117.66054 | 34038 ft | 491 kts | 246° |
| 2026-05-07 18:46 | 37.94331 | -117.73884 | 34032 ft | 492 kts | 246° |
| 2026-05-07 18:47 | 37.91446 | -117.81473 | 34028 ft | 489 kts | 246° |
| 2026-05-07 18:47 | 37.88565 | -117.89076 | 34027 ft | 488 kts | 246° |
| 2026-05-07 18:48 | 37.85639 | -117.96750 | 34029 ft | 491 kts | 246° |
| 2026-05-07 18:48 | 37.82632 | -118.04631 | 34032 ft | 491 kts | 246° |
| 2026-05-07 18:49 | 37.79684 | -118.12334 | 34029 ft | 489 kts | 246° |
| 2026-05-07 18:49 | 37.76725 | -118.20044 | 34026 ft | 488 kts | 246° |
| 2026-05-07 18:50 | 37.73818 | -118.27604 | 34024 ft | 491 kts | 245° |
| 2026-05-07 18:50 | 37.70827 | -118.35361 | 34038 ft | 490 kts | 245° |
| 2026-05-07 18:51 | 37.67850 | -118.43058 | 34042 ft | 487 kts | 245° |
| 2026-05-07 18:51 | 37.64937 | -118.50580 | 34117 ft | 490 kts | 245° |
| 2026-05-07 18:52 | 37.62026 | -118.58072 | 34182 ft | 491 kts | 245° |
| 2026-05-07 18:52 | 37.59023 | -118.65783 | 34241 ft | 489 kts | 245° |
| 2026-05-07 18:53 | 37.56030 | -118.73450 | 34285 ft | 487 kts | 245° |
| 2026-05-07 18:53 | 37.53030 | -118.81119 | 34295 ft | 489 kts | 245° |
| 2026-05-07 18:54 | 37.50013 | -118.88808 | 34267 ft | 491 kts | 245° |
| 2026-05-07 18:54 | 37.46988 | -118.96501 | 34228 ft | 490 kts | 245° |
| 2026-05-07 18:55 | 37.44542 | -119.04451 | 34191 ft | 487 kts | 256° |
| 2026-05-07 18:55 | 37.42640 | -119.12439 | 34149 ft | 487 kts | 255° |
| 2026-05-07 18:56 | 37.40716 | -119.20539 | 34113 ft | 486 kts | 255° |
| 2026-05-07 18:56 | 37.38777 | -119.28671 | 34105 ft | 485 kts | 254° |
| 2026-05-07 18:57 | 37.36875 | -119.36601 | 34108 ft | 485 kts | 255° |
| 2026-05-07 18:57 | 37.34931 | -119.44713 | 33681 ft | 481 kts | 254° |
| 2026-05-07 18:57 | 37.33972 | -119.48667 | 33243 ft | 469 kts | 254° |
| 2026-05-07 18:58 | 37.33075 | -119.52391 | 32803 ft | 463 kts | 254° |
| 2026-05-07 18:58 | 37.32142 | -119.56278 | 32361 ft | 467 kts | 254° |
| 2026-05-07 18:58 | 37.31194 | -119.60197 | 31955 ft | 472 kts | 254° |
| 2026-05-07 18:58 | 37.30232 | -119.64139 | 31560 ft | 473 kts | 254° |
| 2026-05-07 18:59 | 37.29270 | -119.68098 | 31260 ft | 472 kts | 254° |
| 2026-05-07 18:59 | 37.28357 | -119.71875 | 30715 ft | 476 kts | 254° |
| 2026-05-07 18:59 | 37.27389 | -119.75855 | 30075 ft | 476 kts | 254° |
| 2026-05-07 18:59 | 37.26422 | -119.79804 | 29417 ft | 469 kts | 254° |
| 2026-05-07 19:00 | 37.25473 | -119.83680 | 28809 ft | 461 kts | 254° |
| 2026-05-07 19:00 | 37.24549 | -119.87460 | 28213 ft | 444 kts | 254° |
| 2026-05-07 19:00 | 37.23675 | -119.91028 | 27649 ft | 420 kts | 254° |
| 2026-05-07 19:00 | 37.22849 | -119.94537 | 27097 ft | 418 kts | 257° |
| 2026-05-07 19:01 | 37.22422 | -119.98141 | 26642 ft | 419 kts | 264° |
| 2026-05-07 19:01 | 37.22068 | -120.01617 | 26209 ft | 421 kts | 263° |
| 2026-05-07 19:01 | 37.21661 | -120.05243 | 25753 ft | 420 kts | 263° |
| 2026-05-07 19:01 | 37.21285 | -120.08702 | 25321 ft | 417 kts | 263° |
| 2026-05-07 19:02 | 37.20916 | -120.12281 | 24869 ft | 414 kts | 264° |
| 2026-05-07 19:02 | 37.20540 | -120.15869 | 24420 ft | 411 kts | 263° |
| 2026-05-07 19:02 | 37.20155 | -120.19416 | 23971 ft | 409 kts | 263° |
| 2026-05-07 19:02 | 37.19773 | -120.22939 | 23500 ft | 407 kts | 263° |
| 2026-05-07 19:03 | 37.19398 | -120.26445 | 23036 ft | 404 kts | 263° |
| 2026-05-07 19:03 | 37.19043 | -120.29766 | 22610 ft | 400 kts | 263° |
| 2026-05-07 19:03 | 37.18667 | -120.33208 | 22187 ft | 397 kts | 263° |
| 2026-05-07 19:03 | 37.18295 | -120.36626 | 21741 ft | 394 kts | 263° |
| 2026-05-07 19:04 | 37.17948 | -120.39852 | 21342 ft | 391 kts | 263° |
| 2026-05-07 19:04 | 37.17577 | -120.43222 | 20916 ft | 388 kts | 263° |
| 2026-05-07 19:04 | 37.17202 | -120.46554 | 20498 ft | 386 kts | 263° |
| 2026-05-07 19:04 | 37.16848 | -120.49727 | 20100 ft | 383 kts | 263° |
| 2026-05-07 19:05 | 37.16485 | -120.53027 | 19670 ft | 381 kts | 263° |
| 2026-05-07 19:05 | 37.16119 | -120.56311 | 19265 ft | 379 kts | 263° |
| 2026-05-07 19:05 | 37.15754 | -120.59572 | 18856 ft | 377 kts | 263° |
| 2026-05-07 19:05 | 37.15389 | -120.62813 | 18443 ft | 374 kts | 263° |
| 2026-05-07 19:06 | 37.15028 | -120.66028 | 18007 ft | 371 kts | 263° |
| 2026-05-07 19:06 | 37.14312 | -120.72391 | 17033 ft | 365 kts | 263° |
| 2026-05-07 19:06 | 37.13955 | -120.75526 | 16628 ft | 360 kts | 263° |
| 2026-05-07 19:07 | 37.13610 | -120.78623 | 16240 ft | 358 kts | 263° |
| 2026-05-07 19:07 | 37.13273 | -120.81714 | 15848 ft | 357 kts | 263° |
| 2026-05-07 19:07 | 37.12935 | -120.84798 | 15462 ft | 357 kts | 263° |
| 2026-05-07 19:07 | 37.12591 | -120.87873 | 15071 ft | 356 kts | 262° |
| 2026-05-07 19:08 | 37.12250 | -120.90934 | 14693 ft | 353 kts | 262° |
| 2026-05-07 19:08 | 37.11911 | -120.93973 | 14308 ft | 350 kts | 262° |
| 2026-05-07 19:08 | 37.11576 | -120.96984 | 13925 ft | 348 kts | 262° |
| 2026-05-07 19:08 | 37.11240 | -120.99975 | 13523 ft | 345 kts | 262° |
| 2026-05-07 19:09 | 37.10907 | -121.02934 | 13144 ft | 342 kts | 262° |
| 2026-05-07 19:09 | 37.10578 | -121.05862 | 12776 ft | 338 kts | 262° |
| 2026-05-07 19:09 | 37.10266 | -121.08632 | 12426 ft | 335 kts | 261° |
| 2026-05-07 19:09 | 37.09951 | -121.11511 | 12068 ft | 332 kts | 263° |
| 2026-05-07 19:10 | 37.10003 | -121.14397 | 11709 ft | 331 kts | 276° |
| 2026-05-07 19:10 | 37.10348 | -121.17228 | 11354 ft | 324 kts | 277° |
| 2026-05-07 19:10 | 37.10659 | -121.19955 | 11013 ft | 308 kts | 277° |
| 2026-05-07 19:10 | 37.10944 | -121.22524 | 10686 ft | 296 kts | 277° |
| 2026-05-07 19:11 | 37.11238 | -121.25058 | 10372 ft | 286 kts | 277° |
| 2026-05-07 19:11 | 37.11523 | -121.27509 | 10060 ft | 283 kts | 276° |
| 2026-05-07 19:11 | 37.11795 | -121.29922 | 9741 ft | 284 kts | 276° |
| 2026-05-07 19:11 | 37.12074 | -121.32366 | 9426 ft | 284 kts | 277° |
| 2026-05-07 19:12 | 37.12358 | -121.34846 | 9116 ft | 283 kts | 277° |
| 2026-05-07 19:12 | 37.12635 | -121.37278 | 8811 ft | 282 kts | 277° |
| 2026-05-07 19:12 | 37.12905 | -121.39670 | 8506 ft | 280 kts | 277° |
| 2026-05-07 19:12 | 37.13178 | -121.42080 | 8212 ft | 280 kts | 277° |
| 2026-05-07 19:13 | 37.13454 | -121.44498 | 7901 ft | 280 kts | 277° |
| 2026-05-07 19:13 | 37.13718 | -121.46898 | 7601 ft | 277 kts | 277° |
| 2026-05-07 19:13 | 37.13982 | -121.49293 | 7295 ft | 276 kts | 277° |
| 2026-05-07 19:13 | 37.14248 | -121.51661 | 7001 ft | 273 kts | 278° |
| 2026-05-07 19:14 | 37.14514 | -121.54019 | 6697 ft | 273 kts | 278° |
| 2026-05-07 19:14 | 37.14768 | -121.56369 | 6411 ft | 271 kts | 278° |
| 2026-05-07 19:14 | 37.15027 | -121.58705 | 6110 ft | 270 kts | 278° |
| 2026-05-07 19:14 | 37.15289 | -121.61031 | 5819 ft | 269 kts | 278° |
| 2026-05-07 19:15 | 37.15545 | -121.63348 | 5527 ft | 268 kts | 278° |
| 2026-05-07 19:15 | 37.15796 | -121.65646 | 5242 ft | 262 kts | 278° |
| 2026-05-07 19:15 | 37.16027 | -121.67754 | 4976 ft | 251 kts | 278° |
| 2026-05-07 19:15 | 37.16342 | -121.69812 | 4697 ft | 236 kts | 288° |
| 2026-05-07 19:16 | 37.17047 | -121.71602 | 4441 ft | 224 kts | 302° |
| 2026-05-07 19:16 | 37.17976 | -121.73001 | 4216 ft | 215 kts | 316° |
| 2026-05-07 19:16 | 37.19096 | -121.74200 | 3981 ft | 210 kts | 319° |
| 2026-05-07 19:16 | 37.20167 | -121.75386 | 3790 ft | 198 kts | 318° |
| 2026-05-07 19:17 | 37.21163 | -121.76478 | 3576 ft | 182 kts | 319° |
| 2026-05-07 19:17 | 37.22086 | -121.77485 | 3381 ft | 171 kts | 319° |
| 2026-05-07 19:17 | 37.22920 | -121.78391 | 3243 ft | 164 kts | 319° |
| 2026-05-07 19:17 | 37.23766 | -121.79313 | 3061 ft | 152 kts | 319° |
| 2026-05-07 19:18 | 37.24541 | -121.80160 | 2862 ft | 148 kts | 319° |
| 2026-05-07 19:18 | 37.25285 | -121.80969 | 2674 ft | 147 kts | 319° |
| 2026-05-07 19:18 | 37.26053 | -121.81810 | 2471 ft | 145 kts | 319° |
| 2026-05-07 19:18 | 37.26775 | -121.82596 | 2289 ft | 144 kts | 319° |
| 2026-05-07 19:19 | 37.27525 | -121.83419 | 2097 ft | 143 kts | 319° |
| 2026-05-07 19:19 | 37.28272 | -121.84233 | 1897 ft | 140 kts | 319° |
| 2026-05-07 19:19 | 37.28925 | -121.84948 | 1715 ft | 131 kts | 320° |
| 2026-05-07 19:19 | 37.29599 | -121.85684 | 1523 ft | 122 kts | 320° |
| 2026-05-07 19:20 | 37.30233 | -121.86381 | 1360 ft | 119 kts | 320° |
| 2026-05-07 19:20 | 37.30853 | -121.87058 | 1195 ft | 117 kts | 321° |
| 2026-05-07 19:20 | 37.31467 | -121.87725 | 1039 ft | 118 kts | 320° |
| 2026-05-07 19:20 | 37.32068 | -121.88384 | 887 ft | 120 kts | 319° |
| 2026-05-07 19:21 | 37.32686 | -121.89058 | 731 ft | 116 kts | 319° |
| 2026-05-07 19:21 | 37.33092 | -121.89510 | 637 ft | 115 kts | 318° |
| 2026-05-07 19:21 | 37.33691 | -121.90174 | 414 ft | 113 kts | 318° |
| 2026-05-07 19:21 | 37.34473 | -121.91012 | 281 ft | 112 kts | 319° |
| 2026-05-07 19:22 | 37.34861 | -121.91448 | 220 ft | 113 kts | 317° |
| 2026-05-07 19:22 | 37.35458 | -121.92101 | 95 ft | 110 kts | 320° |
| 2026-05-07 19:22 | 37.35937 | -121.92629 | 62 ft | 44 kts | 319° |
| 2026-05-07 19:22 | 37.35999 | -121.92696 | 67 ft | 10 kts | 320° |
| 2026-05-07 19:23 | 37.36106 | -121.92810 | 65 ft | 29 kts | 318° |
| 2026-05-07 19:23 | 37.36243 | -121.92977 | 67 ft | 16 kts | 297° |
| 2026-05-07 19:23 | 37.36219 | -121.93084 | 66 ft | 8 kts | 228° |
| 2026-05-07 19:23 | 37.36212 | -121.93094 | 67 ft | 0 kts | 229° |
| 2026-05-07 19:25 | 37.36212 | -121.93095 | 67 ft | 0 kts | 229° |
| 2026-05-07 19:25 | 37.36174 | -121.93149 | 65 ft | 14 kts | 237° |
| 2026-05-07 19:25 | 37.36221 | -121.93258 | 63 ft | 17 kts | 322° |
| 2026-05-07 19:25 | 37.36287 | -121.93330 | 67 ft | 6 kts | 303° |
| 2026-05-07 19:26 | 37.36275 | -121.93361 | 64 ft | 4 kts | 208° |
| 2026-05-07 19:26 | 37.36262 | -121.93366 | 67 ft | 1 kts | 193° |
| 2026-05-07 19:26 | 37.36216 | -121.93352 | 64 ft | 10 kts | 148° |
| 2026-05-07 19:26 | 37.36174 | -121.93323 | 64 ft | 24 kts | 159° |
| 2026-05-07 19:27 | 37.36146 | -121.93349 | 66 ft | 11 kts | 263° |
| 2026-05-07 19:27 | 37.36169 | -121.93393 | 67 ft | 3 kts | 320° |
| 2026-05-07 19:27 | 37.36194 | -121.93459 | 62 ft | 4 kts | 252° |
| 2026-05-07 19:27 | 37.36184 | -121.93477 | 66 ft | 0 kts | 228° |